Time,TemperatureF,DewpointF,PressureIn,WindDirection,WindDirectionDegrees,WindSpeedMPH,WindSpeedGustMPH,Humidity,HourlyPrecipIn,Conditions,Clouds,dailyrainin,SoftwareType,DateUTC
2013-08-12 00:00:00,83.3,76.5,30.12,East,87,1.0,4.0,80,0.00,,---,0.00,VWS V15.00,2013-08-12 04:00:00,
2013-08-12 00:01:00,81.4,75.7,30.12,ESE,102,0.0,0.0,83,0.00,,---,0.00,VWS V14.01,2013-08-12 04:01:00,
2013-08-12 00:02:00,81.5,75.8,30.12,ESE,102,0.0,0.0,83,0.00,,---,0.00,VWS V14.01,2013-08-12 04:02:00,
2013-08-12 00:06:00,81.5,76.2,30.12,ESE,102,0.0,0.0,84,0.00,,---,0.00,VWS V14.01,2013-08-12 04:06:00,
2013-08-12 00:10:00,81.4,76.1,30.11,ESE,102,0.0,0.0,84,0.00,,---,0.00,VWS V14.01,2013-08-12 04:10:00,
2013-08-12 00:14:00,81.3,76.0,30.12,ESE,102,0.0,0.0,84,0.00,,---,0.00,VWS V14.01,2013-08-12 04:14:00,
2013-08-12 00:15:00,83.0,76.2,30.12,East,95,0.0,3.0,80,0.00,,---,0.00,VWS V15.00,2013-08-12 04:15:00,
2013-08-12 00:19:00,81.4,76.5,30.11,ESE,102,0.0,0.0,85,0.00,,---,0.00,VWS V14.01,2013-08-12 04:19:00,
2013-08-12 00:24:00,81.3,76.0,30.11,ESE,102,0.0,0.0,84,0.00,,---,0.00,VWS V14.01,2013-08-12 04:24:00,
2013-08-12 00:30:00,81.2,75.9,30.11,ESE,102,0.0,1.0,84,0.00,,---,0.00,VWS V14.01,2013-08-12 04:30:00,
2013-08-12 00:35:00,81.1,76.2,30.11,ESE,102,0.0,0.0,85,0.00,,---,0.00,VWS V14.01,2013-08-12 04:35:00,
2013-08-12 00:40:00,81.0,76.4,30.11,ESE,102,0.0,0.0,86,0.00,,---,0.00,VWS V14.01,2013-08-12 04:40:00,
2013-08-12 00:45:00,80.8,75.9,30.11,ESE,102,0.0,0.0,85,0.00,,---,0.00,VWS V14.01,2013-08-12 04:45:00,
2013-08-12 00:50:00,80.7,76.1,30.11,ESE,102,0.0,0.0,86,0.00,,---,0.00,VWS V14.01,2013-08-12 04:50:00,
2013-08-12 00:55:00,80.4,76.2,30.10,ESE,102,0.0,0.0,87,0.00,,---,0.00,VWS V14.01,2013-08-12 04:55:00,
2013-08-12 01:00:00,80.1,76.2,30.11,ESE,102,0.0,0.0,88,0.00,,---,0.00,VWS V14.01,2013-08-12 05:00:00,
2013-08-12 01:05:00,79.7,75.8,30.10,ESE,102,0.0,0.0,88,0.00,,---,0.00,VWS V14.01,2013-08-12 05:05:00,
2013-08-12 01:10:00,79.4,75.9,30.10,ESE,102,0.0,0.0,89,0.00,,---,0.00,VWS V14.01,2013-08-12 05:10:00,
2013-08-12 01:15:00,79.3,75.8,30.10,ESE,102,0.0,0.0,89,0.00,,---,0.00,VWS V14.01,2013-08-12 05:15:00,
2013-08-12 01:20:00,79.3,75.8,30.10,ESE,102,0.0,1.0,89,0.00,,---,0.00,VWS V14.01,2013-08-12 05:20:00,
2013-08-12 01:25:00,79.4,75.9,30.10,ESE,102,0.0,1.0,89,0.00,,---,0.00,VWS V14.01,2013-08-12 05:25:00,
2013-08-12 01:30:00,80.0,76.1,30.10,ESE,110,0.0,1.0,88,0.00,,---,0.00,VWS V14.01,2013-08-12 05:30:00,
2013-08-12 01:35:00,80.3,76.1,30.10,ESE,110,0.0,1.0,87,0.00,,---,0.00,VWS V14.01,2013-08-12 05:35:00,
2013-08-12 01:40:00,80.3,76.1,30.10,ESE,110,0.0,1.0,87,0.00,,---,0.00,VWS V14.01,2013-08-12 05:40:00,
2013-08-12 01:45:00,80.1,76.2,30.10,ESE,110,0.0,1.0,88,0.00,,---,0.00,VWS V14.01,2013-08-12 05:45:00,
2013-08-12 01:50:00,79.7,75.8,30.10,ESE,110,0.0,0.0,88,0.00,,---,0.00,VWS V14.01,2013-08-12 05:50:00,
2013-08-12 01:55:00,79.5,76.0,30.10,ESE,110,0.0,0.0,89,0.00,,---,0.00,VWS V14.01,2013-08-12 05:55:00,
2013-08-12 02:00:00,79.3,75.8,30.10,ESE,110,0.0,0.0,89,0.00,,---,0.00,VWS V14.01,2013-08-12 06:00:00,
2013-08-12 02:05:00,79.3,75.8,30.10,ESE,110,0.0,0.0,89,0.00,,---,0.00,VWS V14.01,2013-08-12 06:05:00,
2013-08-12 02:10:00,79.2,75.7,30.10,ESE,110,0.0,0.0,89,0.00,,---,0.00,VWS V14.01,2013-08-12 06:10:00,
2013-08-12 02:15:00,79.2,75.7,30.10,ESE,110,0.0,0.0,89,0.00,,---,0.00,VWS V14.01,2013-08-12 06:15:00,
2013-08-12 02:20:00,79.1,75.6,30.10,ESE,110,0.0,0.0,89,0.00,,---,0.00,VWS V14.01,2013-08-12 06:20:00,
2013-08-12 02:25:00,78.9,75.4,30.10,ESE,110,0.0,0.0,89,0.00,,---,0.00,VWS V14.01,2013-08-12 06:25:00,
2013-08-12 02:30:00,78.7,75.5,30.09,ESE,110,0.0,0.0,90,0.00,,---,0.00,VWS V14.01,2013-08-12 06:30:00,
2013-08-12 02:35:00,78.9,75.4,30.09,ENE,68,0.0,1.0,89,0.00,,---,0.00,VWS V14.01,2013-08-12 06:35:00,
2013-08-12 02:40:00,79.0,75.5,30.09,ENE,68,0.0,1.0,89,0.00,,---,0.00,VWS V14.01,2013-08-12 06:40:00,
2013-08-12 02:45:00,79.0,75.5,30.09,ENE,68,1.0,1.0,89,0.00,,---,0.00,VWS V14.01,2013-08-12 06:45:00,
2013-08-12 02:50:00,79.1,75.6,30.09,North,359,0.0,2.0,89,0.00,,---,0.00,VWS V14.01,2013-08-12 06:50:00,
2013-08-12 02:55:00,79.2,75.7,30.09,North,359,0.0,2.0,89,0.00,,---,0.00,VWS V14.01,2013-08-12 06:55:00,
2013-08-12 03:00:00,79.1,75.6,30.09,North,359,0.0,2.0,89,0.00,,---,0.00,VWS V14.01,2013-08-12 07:00:00,
2013-08-12 03:05:00,79.0,75.5,30.09,North,359,0.0,1.0,89,0.00,,---,0.00,VWS V14.01,2013-08-12 07:05:00,
2013-08-12 03:10:00,79.0,75.5,30.09,North,359,0.0,1.0,89,0.00,,---,0.00,VWS V14.01,2013-08-12 07:10:00,
2013-08-12 03:15:00,79.2,75.7,30.10,ESE,110,0.0,0.0,89,0.00,,---,0.00,VWS V15.00,2013-08-12 07:15:00,
2013-08-12 03:16:00,79.0,75.5,30.08,North,359,0.0,1.0,89,0.00,,---,0.00,VWS V14.01,2013-08-12 07:16:00,
2013-08-12 03:21:00,78.9,75.4,30.08,North,359,0.0,1.0,89,0.00,,---,0.00,VWS V14.01,2013-08-12 07:21:00,
2013-08-12 03:26:00,78.8,75.3,30.08,North,359,0.0,1.0,89,0.00,,---,0.00,VWS V14.01,2013-08-12 07:26:00,
2013-08-12 03:30:00,78.7,75.5,30.09,East,84,1.0,1.0,90,0.00,,---,0.00,VWS V15.00,2013-08-12 07:30:00,
2013-08-12 03:31:00,78.6,75.4,30.08,North,359,0.0,1.0,90,0.00,,---,0.00,VWS V14.01,2013-08-12 07:31:00,
2013-08-12 03:36:00,78.4,75.2,30.08,North,359,0.0,0.0,90,0.00,,---,0.00,VWS V14.01,2013-08-12 07:36:00,
2013-08-12 03:41:00,78.2,75.4,30.08,North,359,0.0,0.0,91,0.00,,---,0.00,VWS V14.01,2013-08-12 07:41:00,
2013-08-12 03:45:00,79.0,75.5,30.09,ENE,68,0.0,1.0,89,0.00,,---,0.00,VWS V15.00,2013-08-12 07:45:00,
2013-08-12 03:46:00,78.1,75.3,30.08,North,359,0.0,0.0,91,0.00,,---,0.00,VWS V14.01,2013-08-12 07:46:00,
2013-08-12 03:51:00,77.9,75.4,30.08,North,359,0.0,0.0,92,0.00,,---,0.00,VWS V14.01,2013-08-12 07:51:00,
2013-08-12 03:56:00,77.7,75.2,30.07,North,359,0.0,0.0,92,0.00,,---,0.00,VWS V14.01,2013-08-12 07:56:00,
2013-08-12 04:00:00,79.0,75.5,30.09,North,359,0.0,2.0,89,0.00,,---,0.00,VWS V15.00,2013-08-12 08:00:00,
2013-08-12 04:01:00,77.4,74.9,30.08,North,359,0.0,0.0,92,0.00,,---,0.00,VWS V14.01,2013-08-12 08:01:00,
2013-08-12 04:06:00,77.2,75.0,30.07,North,359,0.0,0.0,93,0.00,,---,0.00,VWS V14.01,2013-08-12 08:06:00,
2013-08-12 04:11:00,77.1,75.2,30.08,North,359,0.0,0.0,94,0.00,,---,0.00,VWS V14.01,2013-08-12 08:11:00,
2013-08-12 04:15:00,79.0,75.5,30.08,North,359,0.0,1.0,89,0.00,,---,0.00,VWS V15.00,2013-08-12 08:15:00,
2013-08-12 04:16:00,77.2,75.3,30.08,North,359,0.0,1.0,94,0.00,,---,0.00,VWS V14.01,2013-08-12 08:16:00,
2013-08-12 04:21:00,77.3,75.4,30.08,North,359,0.0,0.0,94,0.00,,---,0.00,VWS V14.01,2013-08-12 08:21:00,
2013-08-12 04:26:00,77.1,74.9,30.08,North,359,0.0,0.0,93,0.00,,---,0.00,VWS V14.01,2013-08-12 08:26:00,
2013-08-12 04:30:00,78.6,75.4,30.08,North,359,0.0,1.0,90,0.00,,---,0.00,VWS V15.00,2013-08-12 08:30:00,
2013-08-12 04:31:00,77.0,75.1,30.08,North,359,0.0,0.0,94,0.00,,---,0.00,VWS V14.01,2013-08-12 08:31:00,
2013-08-12 04:36:00,77.0,75.1,30.08,North,359,0.0,0.0,94,0.00,,---,0.00,VWS V14.01,2013-08-12 08:36:00,
2013-08-12 04:41:00,77.2,75.3,30.07,North,359,0.0,1.0,94,0.00,,---,0.00,VWS V14.01,2013-08-12 08:41:00,
2013-08-12 04:45:00,78.1,75.3,30.08,North,359,0.0,0.0,91,0.00,,---,0.00,VWS V15.00,2013-08-12 08:45:00,
2013-08-12 04:46:00,77.4,75.5,30.07,North,359,0.0,0.0,94,0.00,,---,0.00,VWS V14.01,2013-08-12 08:46:00,
2013-08-12 04:51:00,77.2,75.0,30.07,North,359,0.0,0.0,93,0.00,,---,0.00,VWS V14.01,2013-08-12 08:51:00,
2013-08-12 04:56:00,77.1,74.9,30.07,North,359,0.0,0.0,93,0.00,,---,0.00,VWS V14.01,2013-08-12 08:56:00,
2013-08-12 05:00:00,77.4,74.9,30.08,North,359,0.0,0.0,92,0.00,,---,0.00,VWS V15.00,2013-08-12 09:00:00,
2013-08-12 05:01:00,76.9,75.1,30.07,North,359,0.0,0.0,94,0.00,,---,0.00,VWS V14.01,2013-08-12 09:01:00,
2013-08-12 05:06:00,76.8,74.9,30.07,North,359,0.0,1.0,94,0.00,,---,0.00,VWS V14.01,2013-08-12 09:06:00,
2013-08-12 05:11:00,76.8,75.3,30.07,North,359,0.0,1.0,95,0.00,,---,0.00,VWS V14.01,2013-08-12 09:11:00,
2013-08-12 05:15:00,77.2,75.3,30.08,North,359,0.0,1.0,94,0.00,,---,0.00,VWS V15.00,2013-08-12 09:15:00,
2013-08-12 05:16:00,77.0,75.1,30.06,North,359,0.0,0.0,94,0.00,,---,0.00,VWS V14.01,2013-08-12 09:16:00,
2013-08-12 05:21:00,77.1,75.2,30.06,North,359,0.0,0.0,94,0.00,,---,0.00,VWS V14.01,2013-08-12 09:21:00,
2013-08-12 05:26:00,77.1,75.2,30.07,North,359,0.0,0.0,94,0.00,,---,0.00,VWS V14.01,2013-08-12 09:26:00,
2013-08-12 05:30:00,77.0,75.1,30.08,North,359,0.0,0.0,94,0.00,,---,0.00,VWS V15.00,2013-08-12 09:30:00,
2013-08-12 05:31:00,77.1,75.2,30.07,North,359,0.0,0.0,94,0.00,,---,0.00,VWS V14.01,2013-08-12 09:31:00,
2013-08-12 05:36:00,77.1,74.9,30.07,North,359,0.0,0.0,93,0.00,,---,0.00,VWS V14.01,2013-08-12 09:36:00,
2013-08-12 05:41:00,77.0,75.1,30.07,North,359,0.0,0.0,94,0.00,,---,0.00,VWS V14.01,2013-08-12 09:41:00,
2013-08-12 05:45:00,77.3,75.4,30.07,North,359,0.0,1.0,94,0.00,,---,0.00,VWS V15.00,2013-08-12 09:45:00,
2013-08-12 05:46:00,77.0,75.1,30.07,North,359,0.0,0.0,94,0.00,,---,0.00,VWS V14.01,2013-08-12 09:46:00,
2013-08-12 05:51:00,77.0,74.8,30.07,North,359,0.0,0.0,93,0.00,,---,0.00,VWS V14.01,2013-08-12 09:51:00,
2013-08-12 05:56:00,77.1,74.9,30.07,North,359,0.0,0.0,93,0.00,,---,0.00,VWS V14.01,2013-08-12 09:56:00,
2013-08-12 06:00:00,76.9,75.1,30.07,North,359,0.0,0.0,94,0.00,,---,0.00,VWS V15.00,2013-08-12 10:00:00,
2013-08-12 06:01:00,77.1,74.9,30.07,North,359,0.0,0.0,93,0.00,,---,0.00,VWS V14.01,2013-08-12 10:01:00,
2013-08-12 06:06:00,76.9,74.7,30.07,North,359,0.0,0.0,93,0.00,,---,0.00,VWS V14.01,2013-08-12 10:06:00,
2013-08-12 06:12:00,76.8,74.9,30.07,North,359,0.0,0.0,94,0.00,,---,0.00,VWS V14.01,2013-08-12 10:12:00,
2013-08-12 06:15:00,77.0,75.1,30.07,North,359,0.0,1.0,94,0.00,,---,0.00,VWS V15.00,2013-08-12 10:15:00,
2013-08-12 06:17:00,76.6,74.8,30.08,North,359,0.0,0.0,94,0.00,,---,0.00,VWS V14.01,2013-08-12 10:17:00,
2013-08-12 06:22:00,76.3,74.4,30.07,North,359,0.0,0.0,94,0.00,,---,0.00,VWS V14.01,2013-08-12 10:22:00,
2013-08-12 06:27:00,76.4,74.9,30.07,North,359,0.0,1.0,95,0.00,,---,0.00,VWS V14.01,2013-08-12 10:27:00,
2013-08-12 06:30:00,77.1,75.2,30.07,North,359,0.0,1.0,94,0.00,,---,0.00,VWS V15.00,2013-08-12 10:30:00,
2013-08-12 06:32:00,76.5,75.0,30.08,North,359,0.0,0.0,95,0.00,,---,0.00,VWS V14.01,2013-08-12 10:32:00,
2013-08-12 06:37:00,76.3,74.4,30.07,North,359,0.0,0.0,94,0.00,,---,0.00,VWS V14.01,2013-08-12 10:37:00,
2013-08-12 06:42:00,76.1,74.2,30.07,North,359,0.0,0.0,94,0.00,,---,0.00,VWS V14.01,2013-08-12 10:42:00,
2013-08-12 06:45:00,77.0,75.1,30.07,North,359,0.0,0.0,94,0.00,,---,0.00,VWS V15.00,2013-08-12 10:45:00,
2013-08-12 06:47:00,76.0,74.5,30.08,North,359,0.0,0.0,95,0.00,,---,0.00,VWS V14.01,2013-08-12 10:47:00,
2013-08-12 06:52:00,76.0,74.5,30.08,North,359,0.0,0.0,95,0.00,,---,0.00,VWS V14.01,2013-08-12 10:52:00,
2013-08-12 06:57:00,76.0,74.5,30.08,North,359,0.0,0.0,95,0.00,,---,0.00,VWS V14.01,2013-08-12 10:57:00,
2013-08-12 07:00:00,77.1,74.9,30.07,North,359,0.0,0.0,93,0.00,,---,0.00,VWS V15.00,2013-08-12 11:00:00,
2013-08-12 07:02:00,75.8,74.3,30.08,North,359,0.0,0.0,95,0.00,,---,0.00,VWS V14.01,2013-08-12 11:02:00,
2013-08-12 07:07:00,75.8,74.3,30.08,North,359,0.0,0.0,95,0.00,,---,0.00,VWS V14.01,2013-08-12 11:07:00,
2013-08-12 07:12:00,75.9,74.7,30.08,North,359,0.0,0.0,96,0.00,,---,0.00,VWS V14.01,2013-08-12 11:12:00,
2013-08-12 07:15:00,76.6,74.8,30.08,North,359,0.0,0.0,94,0.00,,---,0.00,VWS V15.00,2013-08-12 11:15:00,
2013-08-12 07:17:00,76.2,74.7,30.08,North,359,0.0,0.0,95,0.00,,---,0.00,VWS V14.01,2013-08-12 11:17:00,
2013-08-12 07:22:00,76.6,74.8,30.08,North,359,0.0,1.0,94,0.00,,---,0.00,VWS V14.01,2013-08-12 11:22:00,
2013-08-12 07:27:00,77.2,75.3,30.08,North,359,0.0,1.0,94,0.00,,---,0.00,VWS V14.01,2013-08-12 11:27:00,
2013-08-12 07:30:00,76.5,74.7,30.07,North,359,0.0,1.0,94,0.00,,---,0.00,VWS V15.00,2013-08-12 11:30:00,
2013-08-12 07:32:00,77.7,75.5,30.08,North,359,0.0,0.0,93,0.00,,---,0.00,VWS V14.01,2013-08-12 11:32:00,
2013-08-12 07:37:00,78.3,75.5,30.08,North,359,0.0,0.0,91,0.00,,---,0.00,VWS V14.01,2013-08-12 11:37:00,
2013-08-12 07:42:00,79.0,76.2,30.08,North,359,0.0,0.0,91,0.00,,---,0.00,VWS V14.01,2013-08-12 11:42:00,
2013-08-12 07:45:00,76.0,74.5,30.08,North,359,0.0,0.0,95,0.00,,---,0.00,VWS V15.00,2013-08-12 11:45:00,
2013-08-12 07:47:00,80.0,76.8,30.08,North,359,0.0,0.0,90,0.00,,---,0.00,VWS V14.01,2013-08-12 11:47:00,
2013-08-12 07:52:00,80.9,76.3,30.08,East,83,0.0,1.0,86,0.00,,---,0.00,VWS V14.01,2013-08-12 11:52:00,
2013-08-12 07:57:00,81.7,76.4,30.08,East,83,0.0,1.0,84,0.00,,---,0.00,VWS V14.01,2013-08-12 11:57:00,
2013-08-12 08:00:00,75.8,74.3,30.08,North,359,0.0,0.0,95,0.00,,---,0.00,VWS V15.00,2013-08-12 12:00:00,
2013-08-12 08:02:00,82.3,76.6,30.09,East,83,0.0,0.0,83,0.00,,---,0.00,VWS V14.01,2013-08-12 12:02:00,
2013-08-12 08:07:00,82.7,76.7,30.09,North,357,0.0,2.0,82,0.00,,---,0.00,VWS V14.01,2013-08-12 12:07:00,
2013-08-12 08:12:00,83.0,76.9,30.09,ENE,75,0.0,2.0,82,0.00,,---,0.00,VWS V14.01,2013-08-12 12:12:00,
2013-08-12 08:15:00,76.1,74.6,30.08,North,359,0.0,0.0,95,0.00,,---,0.00,VWS V15.00,2013-08-12 12:15:00,
2013-08-12 08:17:00,83.6,77.2,30.09,ENE,62,0.0,0.0,81,0.00,,---,0.00,VWS V14.01,2013-08-12 12:17:00,
2013-08-12 08:22:00,83.9,77.4,30.09,East,89,2.0,3.0,81,0.00,,---,0.00,VWS V14.01,2013-08-12 12:22:00,
2013-08-12 08:27:00,84.0,77.2,30.09,East,89,2.0,3.0,80,0.00,,---,0.00,VWS V14.01,2013-08-12 12:27:00,
2013-08-12 08:30:00,77.6,75.4,30.08,North,359,0.0,1.0,93,0.00,,---,0.00,VWS V15.00,2013-08-12 12:30:00,
2013-08-12 08:32:00,84.2,77.0,30.09,East,82,1.0,2.0,79,0.00,,---,0.00,VWS V14.01,2013-08-12 12:32:00,
2013-08-12 08:37:00,84.3,77.1,30.09,East,88,3.0,5.0,79,0.00,,---,0.00,VWS V14.01,2013-08-12 12:37:00,
2013-08-12 08:42:00,84.5,76.9,30.09,East,86,2.0,6.0,78,0.00,,---,0.00,VWS V14.01,2013-08-12 12:42:00,
2013-08-12 08:45:00,79.7,76.2,30.08,North,359,0.0,1.0,89,0.00,,---,0.00,VWS V15.00,2013-08-12 12:45:00,
2013-08-12 08:47:00,84.6,76.6,30.09,East,87,2.0,6.0,77,0.00,,---,0.00,VWS V14.01,2013-08-12 12:47:00,
2013-08-12 08:52:00,84.8,76.4,30.09,East,81,2.0,6.0,76,0.00,,---,0.00,VWS V14.01,2013-08-12 12:52:00,
2013-08-12 08:57:00,85.2,75.2,30.09,East,91,2.0,7.0,72,0.00,,---,0.00,VWS V14.01,2013-08-12 12:57:00,
2013-08-12 09:00:00,82.3,77.0,30.08,East,83,0.0,1.0,84,0.00,,---,0.00,VWS V15.00,2013-08-12 13:00:00,
2013-08-12 09:02:00,85.4,76.2,30.09,NNE,23,5.0,8.0,74,0.00,,---,0.00,VWS V14.01,2013-08-12 13:02:00,
2013-08-12 09:08:00,85.4,74.9,30.09,ENE,71,3.0,9.0,71,0.00,,---,0.00,VWS V14.01,2013-08-12 13:08:00,
2013-08-12 09:13:00,85.6,75.5,30.09,East,81,1.0,9.0,72,0.00,,---,0.00,VWS V14.01,2013-08-12 13:13:00,
2013-08-12 09:15:00,83.5,77.1,30.09,ENE,62,0.0,2.0,81,0.00,,---,0.00,VWS V15.00,2013-08-12 13:15:00,
2013-08-12 09:18:00,86.1,74.8,30.09,ESE,120,4.0,6.0,69,0.00,,---,0.00,VWS V14.01,2013-08-12 13:18:00,
2013-08-12 09:23:00,86.1,75.6,30.09,East,84,3.0,8.0,71,0.00,,---,0.00,VWS V14.01,2013-08-12 13:23:00,
2013-08-12 09:28:00,86.2,76.1,30.09,East,90,2.0,8.0,72,0.00,,---,0.00,VWS V14.01,2013-08-12 13:28:00,
2013-08-12 09:30:00,84.1,76.9,30.09,NE,42,1.0,4.0,79,0.00,,---,0.00,VWS V15.00,2013-08-12 13:30:00,
2013-08-12 09:33:00,86.3,76.2,30.09,East,84,3.0,6.0,72,0.00,,---,0.00,VWS V14.01,2013-08-12 13:33:00,
2013-08-12 09:38:00,86.4,76.3,30.08,ENE,75,6.0,8.0,72,0.00,,---,0.00,VWS V14.01,2013-08-12 13:38:00,
2013-08-12 09:43:00,86.3,76.2,30.08,ENE,72,3.0,10.0,72,0.00,,---,0.00,VWS V14.01,2013-08-12 13:43:00,
2013-08-12 09:45:00,84.6,77.0,30.09,East,100,5.0,6.0,78,0.00,,---,0.00,VWS V15.00,2013-08-12 13:45:00,
2013-08-12 09:48:00,86.5,76.0,30.09,North,11,2.0,6.0,71,0.00,,---,0.00,VWS V14.01,2013-08-12 13:48:00,
2013-08-12 09:53:00,86.6,75.2,30.09,ENE,76,8.0,13.0,69,0.00,,---,0.00,VWS V14.01,2013-08-12 13:53:00,
2013-08-12 09:58:00,86.3,75.8,30.09,ESE,107,3.0,13.0,71,0.00,,---,0.00,VWS V14.01,2013-08-12 13:58:00,
2013-08-12 10:00:00,85.3,76.1,30.09,ENE,71,4.0,7.0,74,0.00,,---,0.00,VWS V15.00,2013-08-12 14:00:00,
2013-08-12 10:03:00,86.8,75.4,30.09,SE,134,4.0,8.0,69,0.00,,---,0.00,VWS V14.01,2013-08-12 14:03:00,
2013-08-12 10:08:00,86.9,75.1,30.09,East,100,3.0,10.0,68,0.00,,---,0.00,VWS V14.01,2013-08-12 14:08:00,
2013-08-12 10:13:00,86.8,74.5,30.09,ESE,104,3.0,10.0,67,0.00,,---,0.00,VWS V14.01,2013-08-12 14:13:00,
2013-08-12 10:15:00,86.0,75.5,30.09,SE,130,3.0,9.0,71,0.00,,---,0.00,VWS V15.00,2013-08-12 14:15:00,
2013-08-12 10:18:00,87.0,73.8,30.09,ESE,119,3.0,7.0,65,0.00,,---,0.00,VWS V14.01,2013-08-12 14:18:00,
2013-08-12 10:23:00,87.0,73.4,30.09,East,91,7.0,11.0,64,0.00,,---,0.00,VWS V14.01,2013-08-12 14:23:00,
2013-08-12 10:28:00,87.0,74.3,30.09,ESE,108,8.0,11.0,66,0.00,,---,0.00,VWS V14.01,2013-08-12 14:28:00,
2013-08-12 10:30:00,86.3,76.6,30.09,East,91,3.0,8.0,73,0.00,,---,0.00,VWS V15.00,2013-08-12 14:30:00,
2013-08-12 10:33:00,87.2,74.5,30.09,East,98,6.0,9.0,66,0.00,,---,0.00,VWS V14.01,2013-08-12 14:33:00,
2013-08-12 10:38:00,87.4,73.7,30.09,SE,127,4.0,9.0,64,0.00,,---,0.00,VWS V14.01,2013-08-12 14:38:00,
2013-08-12 10:43:00,87.6,73.5,30.09,East,79,4.0,9.0,63,0.00,,---,0.00,VWS V14.01,2013-08-12 14:43:00,
2013-08-12 10:45:00,86.3,75.4,30.08,East,100,2.0,10.0,70,0.00,,---,0.00,VWS V15.00,2013-08-12 14:45:00,
2013-08-12 10:48:00,87.7,74.0,30.09,ESE,116,5.0,8.0,64,0.00,,---,0.00,VWS V14.01,2013-08-12 14:48:00,
2013-08-12 10:53:00,88.0,74.8,30.09,East,93,6.0,9.0,65,0.00,,---,0.00,VWS V14.01,2013-08-12 14:53:00,
2013-08-12 10:58:00,87.8,73.6,30.09,NE,44,2.0,10.0,63,0.00,,---,0.00,VWS V14.01,2013-08-12 14:58:00,
2013-08-12 11:00:00,86.6,75.7,30.09,NE,53,8.0,13.0,70,0.00,,---,0.00,VWS V15.00,2013-08-12 15:00:00,
2013-08-12 11:03:00,87.7,73.6,30.09,ESE,102,3.0,9.0,63,0.00,,---,0.00,VWS V14.01,2013-08-12 15:03:00,
2013-08-12 11:08:00,87.8,72.2,30.09,East,91,5.0,10.0,60,0.00,,---,0.00,VWS V14.01,2013-08-12 15:08:00,
2013-08-12 11:13:00,88.0,72.9,30.09,ESE,114,4.0,10.0,61,0.00,,---,0.00,VWS V14.01,2013-08-12 15:13:00,
2013-08-12 11:15:00,86.8,73.6,30.09,East,90,5.0,10.0,65,0.00,,---,0.00,VWS V15.00,2013-08-12 15:15:00,
2013-08-12 11:18:00,88.0,74.3,30.09,ESE,111,5.0,7.0,64,0.00,,---,0.00,VWS V14.01,2013-08-12 15:18:00,
2013-08-12 11:24:00,88.1,73.4,30.09,NE,52,4.0,10.0,62,0.00,,---,0.00,VWS V14.01,2013-08-12 15:24:00,
2013-08-12 11:29:00,87.8,74.1,30.09,East,94,9.0,10.0,64,0.00,,---,0.00,VWS V14.01,2013-08-12 15:29:00,
2013-08-12 11:30:00,87.2,74.9,30.09,ESE,106,3.0,11.0,67,0.00,,---,0.00,VWS V15.00,2013-08-12 15:30:00,
2013-08-12 11:34:00,88.2,72.6,30.09,ENE,75,5.0,8.0,60,0.00,,---,0.00,VWS V14.01,2013-08-12 15:34:00,
2013-08-12 11:39:00,88.4,71.2,30.09,East,91,7.0,11.0,57,0.00,,---,0.00,VWS V14.01,2013-08-12 15:39:00,
2013-08-12 11:44:00,88.7,74.0,30.09,East,82,3.0,11.0,62,0.00,,---,0.00,VWS V14.01,2013-08-12 15:44:00,
2013-08-12 11:45:00,87.6,73.9,30.09,SE,129,2.0,9.0,64,0.00,,---,0.00,VWS V15.00,2013-08-12 15:45:00,
2013-08-12 11:49:00,88.8,74.1,30.09,SSE,147,4.0,6.0,62,0.00,,---,0.00,VWS V14.01,2013-08-12 15:49:00,
2013-08-12 11:54:00,89.1,72.9,30.09,ESE,113,3.0,10.0,59,0.00,,---,0.00,VWS V14.01,2013-08-12 15:54:00,
2013-08-12 11:59:00,88.9,74.2,30.09,East,90,6.0,10.0,62,0.00,,---,0.00,VWS V14.01,2013-08-12 15:59:00,
2013-08-12 12:00:00,87.8,73.6,30.09,SE,131,5.0,12.0,63,0.00,,---,0.00,VWS V15.00,2013-08-12 16:00:00,
2013-08-12 12:04:00,89.1,73.9,30.09,East,94,4.0,8.0,61,0.00,,---,0.00,VWS V14.01,2013-08-12 16:04:00,
2013-08-12 12:09:00,88.9,72.7,30.09,SSE,150,8.0,11.0,59,0.00,,---,0.00,VWS V14.01,2013-08-12 16:09:00,
2013-08-12 12:14:00,88.9,72.7,30.08,East,101,8.0,12.0,59,0.00,,---,0.00,VWS V14.01,2013-08-12 16:14:00,
2013-08-12 12:15:00,87.9,72.8,30.09,ESE,102,7.0,10.0,61,0.00,,---,0.00,VWS V15.00,2013-08-12 16:15:00,
2013-08-12 12:19:00,89.2,74.5,30.08,ESE,103,5.0,8.0,62,0.00,,---,0.00,VWS V14.01,2013-08-12 16:19:00,
2013-08-12 12:24:00,89.0,74.8,30.08,ENE,64,7.0,11.0,63,0.00,,---,0.00,VWS V14.01,2013-08-12 16:24:00,
2013-08-12 12:29:00,89.3,74.1,30.08,SE,136,7.0,11.0,61,0.00,,---,0.00,VWS V14.01,2013-08-12 16:29:00,
2013-08-12 12:30:00,88.0,72.4,30.09,East,91,7.0,10.0,60,0.00,,---,0.00,VWS V15.00,2013-08-12 16:30:00,
2013-08-12 12:34:00,89.0,74.3,30.08,ESE,116,5.0,8.0,62,0.00,,---,0.00,VWS V14.01,2013-08-12 16:34:00,
2013-08-12 12:39:00,89.4,75.6,30.08,NE,35,1.0,8.0,64,0.00,,---,0.00,VWS V14.01,2013-08-12 16:39:00,
2013-08-12 12:44:00,89.5,75.2,30.08,ENE,74,8.0,9.0,63,0.00,,---,0.00,VWS V14.01,2013-08-12 16:44:00,
2013-08-12 12:45:00,88.7,74.0,30.09,ENE,76,5.0,11.0,62,0.00,,---,0.00,VWS V15.00,2013-08-12 16:45:00,
2013-08-12 12:49:00,89.5,75.2,30.08,ESE,105,6.0,11.0,63,0.00,,---,0.00,VWS V14.01,2013-08-12 16:49:00,
2013-08-12 12:54:00,89.9,75.6,30.07,East,89,2.0,11.0,63,0.00,,---,0.00,VWS V14.01,2013-08-12 16:54:00,
2013-08-12 12:59:00,89.8,74.6,30.07,East,98,7.0,11.0,61,0.00,,---,0.00,VWS V14.01,2013-08-12 16:59:00,
2013-08-12 13:00:00,89.1,73.4,30.09,East,82,6.0,11.0,60,0.00,,---,0.00,VWS V15.00,2013-08-12 17:00:00,
2013-08-12 13:04:00,89.7,75.9,30.07,East,93,3.0,8.0,64,0.00,,---,0.00,VWS V14.01,2013-08-12 17:04:00,
2013-08-12 13:09:00,89.8,76.0,30.07,ENE,75,7.0,8.0,64,0.00,,---,0.00,VWS V14.01,2013-08-12 17:09:00,
2013-08-12 13:14:00,89.9,76.6,30.07,ENE,75,5.0,9.0,65,0.00,,---,0.00,VWS V14.01,2013-08-12 17:14:00,
2013-08-12 13:15:00,89.0,74.3,30.08,East,91,3.0,12.0,62,0.00,,---,0.00,VWS V15.00,2013-08-12 17:15:00,
2013-08-12 13:19:00,90.0,76.7,30.07,ESE,113,7.0,11.0,65,0.00,,---,0.00,VWS V14.01,2013-08-12 17:19:00,
2013-08-12 13:24:00,89.4,76.1,30.07,SE,141,4.0,11.0,65,0.00,,---,0.00,VWS V14.01,2013-08-12 17:24:00,
2013-08-12 13:29:00,89.4,77.0,30.07,East,82,10.0,11.0,67,0.00,,---,0.00,VWS V14.01,2013-08-12 17:29:00,
2013-08-12 13:30:00,89.2,74.5,30.08,East,89,5.0,11.0,62,0.00,,---,0.00,VWS V15.00,2013-08-12 17:30:00,
2013-08-12 13:34:00,89.2,75.4,30.07,East,80,10.0,12.0,64,0.00,,---,0.00,VWS V14.01,2013-08-12 17:34:00,
2013-08-12 13:39:00,89.6,75.3,30.07,SE,134,5.0,12.0,63,0.00,,---,0.00,VWS V14.01,2013-08-12 17:39:00,
2013-08-12 13:44:00,90.0,75.7,30.07,SE,144,7.0,12.0,63,0.00,,---,0.00,VWS V14.01,2013-08-12 17:44:00,
2013-08-12 13:45:00,89.3,75.5,30.08,ESE,119,7.0,10.0,64,0.00,,---,0.00,VWS V15.00,2013-08-12 17:45:00,
2013-08-12 13:49:00,90.3,74.5,30.07,ENE,68,2.0,11.0,60,0.00,,---,0.00,VWS V14.01,2013-08-12 17:49:00,
2013-08-12 13:54:00,90.1,74.8,30.06,South,179,4.0,11.0,61,0.00,,---,0.00,VWS V14.01,2013-08-12 17:54:00,
2013-08-12 13:59:00,90.0,76.2,30.06,ENE,63,1.0,15.0,64,0.00,,---,0.00,VWS V14.01,2013-08-12 17:59:00,
2013-08-12 14:00:00,89.7,75.9,30.07,ESE,105,2.0,11.0,64,0.00,,---,0.00,VWS V15.00,2013-08-12 18:00:00,
2013-08-12 14:04:00,90.1,74.8,30.06,East,94,3.0,8.0,61,0.00,,---,0.00,VWS V14.01,2013-08-12 18:04:00,
2013-08-12 14:09:00,90.2,76.4,30.06,East,95,3.0,10.0,64,0.00,,---,0.00,VWS V14.01,2013-08-12 18:09:00,
2013-08-12 14:15:00,90.5,75.7,30.06,ENE,60,2.0,10.0,62,0.00,,---,0.00,VWS V14.01,2013-08-12 18:15:00,
2013-08-12 14:20:00,90.4,75.1,30.06,SE,146,5.0,9.0,61,0.00,,---,0.00,VWS V14.01,2013-08-12 18:20:00,
2013-08-12 14:26:00,89.1,75.3,30.06,ESE,111,7.0,14.0,64,0.00,,---,0.00,VWS V14.01,2013-08-12 18:26:00,
2013-08-12 14:30:00,89.3,75.1,30.07,ESE,115,6.0,11.0,63,0.00,,---,0.00,VWS V15.00,2013-08-12 18:30:00,
2013-08-12 14:31:00,86.2,77.3,30.06,ENE,59,7.0,9.0,75,0.00,,---,0.00,VWS V14.01,2013-08-12 18:31:00,
2013-08-12 14:37:00,82.6,75.4,30.07,East,89,4.0,11.0,79,0.10,,---,0.10,VWS V14.01,2013-08-12 18:37:00,
2013-08-12 14:42:00,80.3,74.3,30.07,East,91,8.0,11.0,82,0.12,,---,0.12,VWS V14.01,2013-08-12 18:42:00,
2013-08-12 14:45:00,90.2,75.4,30.07,ENE,70,6.0,12.0,62,0.00,,---,0.00,VWS V15.00,2013-08-12 18:45:00,
2013-08-12 14:48:00,79.7,73.0,30.06,East,89,3.0,7.0,80,0.13,,---,0.13,VWS V14.01,2013-08-12 18:48:00,
2013-08-12 14:53:00,79.5,73.9,30.06,East,98,0.0,7.0,83,0.13,,---,0.13,VWS V14.01,2013-08-12 18:53:00,
2013-08-12 14:58:00,79.9,75.0,30.06,ESE,110,0.0,7.0,85,0.13,,---,0.13,VWS V14.01,2013-08-12 18:58:00,
2013-08-12 15:00:00,90.2,75.9,30.06,ESE,114,5.0,15.0,63,0.00,,---,0.00,VWS V15.00,2013-08-12 19:00:00,
2013-08-12 15:03:00,80.8,76.2,30.05,SE,132,1.0,2.0,86,0.13,,---,0.13,VWS V14.01,2013-08-12 19:03:00,
2013-08-12 15:08:00,81.5,76.9,30.05,East,89,2.0,3.0,86,0.13,,---,0.13,VWS V14.01,2013-08-12 19:08:00,
2013-08-12 15:13:00,82.3,77.7,30.05,East,84,5.0,5.0,86,0.13,,---,0.13,VWS V14.01,2013-08-12 19:13:00,
2013-08-12 15:15:00,90.6,74.3,30.06,ESE,108,2.0,10.0,59,0.00,,---,0.00,VWS V15.00,2013-08-12 19:15:00,
2013-08-12 15:18:00,82.9,77.6,30.05,ENE,65,4.0,5.0,84,0.13,,---,0.13,VWS V14.01,2013-08-12 19:18:00,
2013-08-12 15:23:00,83.5,78.5,30.05,East,85,2.0,6.0,85,0.13,,---,0.13,VWS V14.01,2013-08-12 19:23:00,
2013-08-12 15:28:00,83.9,78.6,30.05,East,80,5.0,8.0,84,0.13,,---,0.13,VWS V14.01,2013-08-12 19:28:00,
2013-08-12 15:30:00,86.2,77.3,30.06,ENE,72,9.0,18.0,75,0.00,,---,0.00,VWS V15.00,2013-08-12 19:30:00,
2013-08-12 15:33:00,84.4,78.7,30.05,East,94,3.0,6.0,83,0.13,,---,0.13,VWS V14.01,2013-08-12 19:33:00,
2013-08-12 15:38:00,84.5,77.7,30.05,ESE,115,2.0,8.0,80,0.13,,---,0.13,VWS V14.01,2013-08-12 19:38:00,
2013-08-12 15:43:00,84.6,77.4,30.05,East,90,2.0,9.0,79,0.13,,---,0.13,VWS V14.01,2013-08-12 19:43:00,
2013-08-12 15:45:00,79.8,73.8,30.07,East,80,6.0,12.0,82,0.13,,---,0.13,VWS V15.00,2013-08-12 19:45:00,
2013-08-12 15:48:00,84.6,77.0,30.04,East,80,5.0,7.0,78,0.00,,---,0.13,VWS V14.01,2013-08-12 19:48:00,
2013-08-12 15:53:00,84.7,76.7,30.04,East,101,6.0,8.0,77,0.00,,---,0.13,VWS V14.01,2013-08-12 19:53:00,
2013-08-12 15:58:00,84.8,77.6,30.04,East,92,1.0,8.0,79,0.00,,---,0.13,VWS V14.01,2013-08-12 19:58:00,
2013-08-12 16:00:00,80.5,75.9,30.06,East,95,0.0,7.0,86,0.13,,---,0.13,VWS V15.00,2013-08-12 20:00:00,
2013-08-12 16:03:00,84.9,76.9,30.04,East,100,1.0,7.0,77,0.00,,---,0.13,VWS V14.01,2013-08-12 20:03:00,
2013-08-12 16:08:00,85.0,77.4,30.04,SE,127,3.0,7.0,78,0.00,,---,0.13,VWS V14.01,2013-08-12 20:08:00,
2013-08-12 16:13:00,85.2,76.8,30.04,East,96,3.0,8.0,76,0.00,,---,0.13,VWS V14.01,2013-08-12 20:13:00,
2013-08-12 16:15:00,82.7,78.1,30.05,ENE,78,1.0,6.0,86,0.13,,---,0.13,VWS V15.00,2013-08-12 20:15:00,
2013-08-12 16:18:00,85.4,76.6,30.04,East,98,5.0,7.0,75,0.00,,---,0.13,VWS V14.01,2013-08-12 20:18:00,
2013-08-12 16:23:00,85.4,76.6,30.04,ESE,114,6.0,11.0,75,0.00,,---,0.13,VWS V14.01,2013-08-12 20:23:00,
2013-08-12 16:28:00,85.6,76.4,30.04,East,88,5.0,11.0,74,0.00,,---,0.13,VWS V14.01,2013-08-12 20:28:00,
2013-08-12 16:30:00,84.2,78.1,30.05,East,93,5.0,8.0,82,0.13,,---,0.13,VWS V15.00,2013-08-12 20:30:00,
2013-08-12 16:33:00,86.4,77.1,30.04,ESE,114,4.0,5.0,74,0.00,,---,0.13,VWS V14.01,2013-08-12 20:33:00,
2013-08-12 16:38:00,87.1,76.6,30.03,ESE,110,3.0,8.0,71,0.00,,---,0.13,VWS V14.01,2013-08-12 20:38:00,
2013-08-12 16:43:00,87.2,75.4,30.04,ESE,120,4.0,11.0,68,0.00,,---,0.13,VWS V14.01,2013-08-12 20:43:00,
2013-08-12 16:45:00,84.6,77.4,30.05,East,94,6.0,9.0,79,0.13,,---,0.13,VWS V15.00,2013-08-12 20:45:00,
2013-08-12 16:48:00,87.5,75.6,30.04,ESE,113,2.0,7.0,68,0.00,,---,0.13,VWS V14.01,2013-08-12 20:48:00,
2013-08-12 16:53:00,87.8,75.5,30.04,East,86,7.0,8.0,67,0.00,,---,0.13,VWS V14.01,2013-08-12 20:53:00,
2013-08-12 16:58:00,88.1,74.9,30.03,East,94,2.0,10.0,65,0.00,,---,0.13,VWS V14.01,2013-08-12 20:58:00,
2013-08-12 17:00:00,84.9,77.3,30.05,ESE,104,3.0,8.0,78,0.00,,---,0.13,VWS V15.00,2013-08-12 21:00:00,
2013-08-12 17:03:00,87.9,74.7,30.03,East,96,2.0,6.0,65,0.00,,---,0.13,VWS V14.01,2013-08-12 21:03:00,
2013-08-12 17:09:00,87.9,74.2,30.03,East,79,6.0,10.0,64,0.00,,---,0.13,VWS V14.01,2013-08-12 21:09:00,
2013-08-12 17:14:00,87.9,74.2,30.03,ENE,75,5.0,11.0,64,0.00,,---,0.13,VWS V14.01,2013-08-12 21:14:00,
2013-08-12 17:15:00,87.8,74.1,30.03,ENE,77,6.0,11.0,64,0.00,,---,0.13,VWS V15.00,2013-08-12 21:15:00,
2013-08-12 17:19:00,87.9,74.2,30.03,NE,42,5.0,11.0,64,0.00,,---,0.13,VWS V14.01,2013-08-12 21:19:00,
2013-08-12 17:24:00,88.1,74.9,30.02,ENE,75,2.0,11.0,65,0.00,,---,0.13,VWS V14.01,2013-08-12 21:24:00,
2013-08-12 17:29:00,88.2,74.0,30.02,ESE,123,7.0,11.0,63,0.00,,---,0.13,VWS V14.01,2013-08-12 21:29:00,
2013-08-12 17:30:00,86.0,77.2,30.04,East,101,5.0,11.0,75,0.00,,---,0.13,VWS V15.00,2013-08-12 21:30:00,
2013-08-12 17:34:00,88.3,75.1,30.02,ESE,102,4.0,7.0,65,0.00,,---,0.13,VWS V14.01,2013-08-12 21:34:00,
2013-08-12 17:39:00,88.2,75.9,30.02,ENE,74,2.0,8.0,67,0.00,,---,0.13,VWS V14.01,2013-08-12 21:39:00,
2013-08-12 17:44:00,88.3,76.0,30.03,East,79,5.0,9.0,67,0.00,,---,0.13,VWS V14.01,2013-08-12 21:44:00,
2013-08-12 17:45:00,87.3,76.3,30.04,ESE,107,3.0,11.0,70,0.00,,---,0.13,VWS V15.00,2013-08-12 21:45:00,
2013-08-12 17:49:00,87.4,76.8,30.03,East,88,7.0,9.0,71,0.00,,---,0.13,VWS V14.01,2013-08-12 21:49:00,
2013-08-12 17:54:00,86.8,76.3,30.03,ENE,78,6.0,10.0,71,0.00,,---,0.13,VWS V14.01,2013-08-12 21:54:00,
2013-08-12 17:59:00,86.9,76.4,30.03,SSE,156,5.0,10.0,71,0.00,,---,0.13,VWS V14.01,2013-08-12 21:59:00,
2013-08-12 18:00:00,88.0,74.8,30.03,SE,124,5.0,10.0,65,0.00,,---,0.13,VWS V15.00,2013-08-12 22:00:00,
2013-08-12 18:04:00,86.9,76.4,30.03,East,89,8.0,10.0,71,0.00,,---,0.13,VWS V14.01,2013-08-12 22:04:00,
2013-08-12 18:09:00,86.7,76.6,30.03,East,96,3.0,11.0,72,0.00,,---,0.13,VWS V14.01,2013-08-12 22:09:00,
2013-08-12 18:14:00,86.8,76.7,30.03,ENE,69,5.0,11.0,72,0.00,,---,0.13,VWS V14.01,2013-08-12 22:14:00,
2013-08-12 18:15:00,87.8,74.1,30.03,ENE,77,6.0,11.0,64,0.00,,---,0.13,VWS V15.00,2013-08-12 22:15:00,
2013-08-12 18:19:00,86.3,76.6,30.03,East,91,4.0,10.0,73,0.00,,---,0.13,VWS V14.01,2013-08-12 22:19:00,
2013-08-12 18:24:00,86.3,76.6,30.03,ESE,117,6.0,10.0,73,0.00,,---,0.13,VWS V14.01,2013-08-12 22:24:00,
2013-08-12 18:29:00,86.5,76.8,30.03,ESE,110,4.0,10.0,73,0.00,,---,0.13,VWS V14.01,2013-08-12 22:29:00,
2013-08-12 18:30:00,88.3,74.6,30.03,ESE,111,5.0,11.0,64,0.00,,---,0.13,VWS V15.00,2013-08-12 22:30:00,
2013-08-12 18:34:00,86.3,75.8,30.03,ESE,110,4.0,9.0,71,0.00,,---,0.13,VWS V14.01,2013-08-12 22:34:00,
2013-08-12 18:39:00,86.1,74.3,30.03,ESE,106,2.0,12.0,68,0.00,,---,0.13,VWS V14.01,2013-08-12 22:39:00,
2013-08-12 18:44:00,85.9,74.1,30.03,East,101,5.0,12.0,68,0.00,,---,0.13,VWS V14.01,2013-08-12 22:44:00,
2013-08-12 18:45:00,88.1,77.1,30.03,ENE,78,4.0,10.0,70,0.00,,---,0.13,VWS V15.00,2013-08-12 22:45:00,
2013-08-12 18:50:00,85.5,74.2,30.03,East,84,1.0,9.0,69,0.00,,---,0.13,VWS V14.01,2013-08-12 22:50:00,
2013-08-12 18:55:00,85.2,73.9,30.03,East,79,2.0,9.0,69,0.00,,---,0.13,VWS V14.01,2013-08-12 22:55:00,
2013-08-12 19:00:00,85.1,73.4,30.03,ESE,103,6.0,9.0,68,0.00,,---,0.13,VWS V14.01,2013-08-12 23:00:00,
2013-08-12 19:05:00,85.0,73.3,30.03,SE,129,1.0,11.0,68,0.00,,---,0.13,VWS V14.01,2013-08-12 23:05:00,
2013-08-12 19:10:00,84.9,73.6,30.03,East,95,3.0,11.0,69,0.00,,---,0.13,VWS V14.01,2013-08-12 23:10:00,
2013-08-12 19:15:00,84.8,74.4,30.03,SE,127,1.0,11.0,71,0.00,,---,0.13,VWS V14.01,2013-08-12 23:15:00,
2013-08-12 19:20:00,84.9,75.3,30.03,East,97,4.0,8.0,73,0.00,,---,0.13,VWS V14.01,2013-08-12 23:20:00,
2013-08-12 19:25:00,84.8,76.0,30.03,East,85,5.0,10.0,75,0.00,,---,0.13,VWS V14.01,2013-08-12 23:25:00,
2013-08-12 19:30:00,84.6,76.2,30.04,ENE,78,4.0,10.0,76,0.00,,---,0.13,VWS V14.01,2013-08-12 23:30:00,
2013-08-12 19:35:00,84.5,76.1,30.03,ENE,75,2.0,5.0,76,0.00,,---,0.13,VWS V14.01,2013-08-12 23:35:00,
2013-08-12 19:40:00,84.4,76.4,30.03,East,98,2.0,5.0,77,0.00,,---,0.13,VWS V14.01,2013-08-12 23:40:00,
2013-08-12 19:45:00,84.2,76.6,30.03,East,98,3.0,5.0,78,0.00,,---,0.13,VWS V14.01,2013-08-12 23:45:00,
2013-08-12 19:50:00,84.1,75.7,30.03,ESE,109,2.0,8.0,76,0.00,,---,0.13,VWS V14.01,2013-08-12 23:50:00,
2013-08-12 19:55:00,83.9,75.9,30.02,East,82,4.0,8.0,77,0.00,,---,0.13,VWS V14.01,2013-08-12 23:55:00,
2013-08-12 20:00:00,83.9,75.9,30.02,East,90,1.0,8.0,77,0.00,,---,0.13,VWS V14.01,2013-08-13 00:00:00,
2013-08-12 20:05:00,83.8,76.2,30.02,ESE,112,1.0,6.0,78,0.00,,---,0.13,VWS V14.01,2013-08-13 00:05:00,
2013-08-12 20:10:00,83.7,76.1,30.03,East,94,1.0,9.0,78,0.00,,---,0.13,VWS V14.01,2013-08-13 00:10:00,
2013-08-12 20:15:00,83.6,76.4,30.03,ENE,69,3.0,9.0,79,0.00,,---,0.13,VWS V14.01,2013-08-13 00:15:00,
2013-08-12 20:20:00,83.5,76.3,30.03,East,93,3.0,5.0,79,0.00,,---,0.13,VWS V14.01,2013-08-13 00:20:00,
2013-08-12 20:25:00,83.4,76.2,30.03,East,83,2.0,6.0,79,0.00,,---,0.13,VWS V14.01,2013-08-13 00:25:00,
2013-08-12 20:30:00,83.3,76.5,30.03,East,93,5.0,6.0,80,0.00,,---,0.13,VWS V14.01,2013-08-13 00:30:00,
2013-08-12 20:35:00,83.3,76.5,30.03,East,99,3.0,6.0,80,0.00,,---,0.13,VWS V14.01,2013-08-13 00:35:00,
2013-08-12 20:40:00,83.1,76.7,30.03,East,80,0.0,6.0,81,0.00,,---,0.13,VWS V14.01,2013-08-13 00:40:00,
2013-08-12 20:45:00,83.0,76.6,30.03,East,87,2.0,6.0,81,0.00,,---,0.13,VWS V14.01,2013-08-13 00:45:00,
2013-08-12 20:50:00,83.0,76.6,30.04,East,92,4.0,4.0,81,0.00,,---,0.13,VWS V14.01,2013-08-13 00:50:00,
2013-08-12 20:55:00,83.0,76.9,30.03,ESE,108,2.0,5.0,82,0.00,,---,0.13,VWS V14.01,2013-08-13 00:55:00,
2013-08-12 21:00:00,83.0,76.9,30.04,East,89,2.0,5.0,82,0.00,,---,0.13,VWS V14.01,2013-08-13 01:00:00,
2013-08-12 21:05:00,82.9,76.8,30.04,East,82,2.0,3.0,82,0.00,,---,0.13,VWS V14.01,2013-08-13 01:05:00,
2013-08-12 21:10:00,82.9,76.8,30.04,ESE,111,0.0,4.0,82,0.00,,---,0.13,VWS V14.01,2013-08-13 01:10:00,
2013-08-12 21:15:00,82.8,76.8,30.04,East,100,1.0,4.0,82,0.00,,---,0.13,VWS V14.01,2013-08-13 01:15:00,
2013-08-12 21:20:00,82.8,77.1,30.04,SE,125,1.0,4.0,83,0.00,,---,0.13,VWS V14.01,2013-08-13 01:20:00,
2013-08-12 21:25:00,82.7,77.0,30.04,East,94,0.0,4.0,83,0.00,,---,0.13,VWS V14.01,2013-08-13 01:25:00,
2013-08-12 21:30:00,82.7,77.0,30.04,East,91,0.0,4.0,83,0.00,,---,0.13,VWS V14.01,2013-08-13 01:30:00,
2013-08-12 21:35:00,82.6,76.9,30.05,East,92,0.0,2.0,83,0.00,,---,0.13,VWS V14.01,2013-08-13 01:35:00,
2013-08-12 21:41:00,82.5,77.2,30.05,East,91,0.0,2.0,84,0.00,,---,0.13,VWS V14.01,2013-08-13 01:41:00,
2013-08-12 21:45:00,83.0,76.6,30.03,ESE,117,3.0,6.0,81,0.00,,---,0.13,VWS V15.00,2013-08-13 01:45:00,
2013-08-12 21:46:00,82.3,77.3,30.05,East,91,0.0,2.0,85,0.00,,---,0.13,VWS V14.01,2013-08-13 01:46:00,
2013-08-12 21:51:00,82.0,76.7,30.05,East,91,0.0,0.0,84,0.00,,---,0.13,VWS V14.01,2013-08-13 01:51:00,
2013-08-12 21:56:00,81.8,76.8,30.05,East,91,0.0,0.0,85,0.00,,---,0.13,VWS V14.01,2013-08-13 01:56:00,
2013-08-12 22:00:00,83.0,76.9,30.04,East,85,1.0,5.0,82,0.00,,---,0.13,VWS V15.00,2013-08-13 02:00:00,
2013-08-12 22:01:00,81.7,76.8,30.05,East,91,0.0,0.0,85,0.00,,---,0.13,VWS V14.01,2013-08-13 02:01:00,
2013-08-12 22:06:00,81.5,76.9,30.05,East,91,0.0,0.0,86,0.00,,---,0.13,VWS V14.01,2013-08-13 02:06:00,
2013-08-12 22:08:00,81.4,76.5,30.05,East,91,0.0,0.0,85,0.00,,---,0.13,VWS V14.01,2013-08-13 02:08:00,
2013-08-12 22:13:00,81.2,76.6,30.05,East,91,0.0,0.0,86,0.00,,---,0.13,VWS V14.01,2013-08-13 02:13:00,
2013-08-12 22:15:00,82.8,76.8,30.04,ESE,102,2.0,4.0,82,0.00,,---,0.13,VWS V15.00,2013-08-13 02:15:00,
2013-08-12 22:18:00,81.0,76.4,30.05,East,91,0.0,0.0,86,0.00,,---,0.13,VWS V14.01,2013-08-13 02:18:00,
2013-08-12 22:23:00,81.0,76.8,30.05,East,91,0.0,0.0,87,0.00,,---,0.13,VWS V14.01,2013-08-13 02:23:00,
2013-08-12 22:28:00,81.1,76.5,30.06,East,86,0.0,2.0,86,0.00,,---,0.13,VWS V14.01,2013-08-13 02:28:00,
2013-08-12 22:30:00,82.7,77.0,30.04,East,91,0.0,4.0,83,0.00,,---,0.13,VWS V15.00,2013-08-13 02:30:00,
2013-08-12 22:33:00,81.3,76.7,30.06,East,86,0.0,1.0,86,0.00,,---,0.13,VWS V14.01,2013-08-13 02:33:00,
2013-08-12 22:38:00,81.4,76.5,30.06,East,86,0.0,1.0,85,0.00,,---,0.13,VWS V14.01,2013-08-13 02:38:00,
2013-08-12 22:43:00,81.4,76.5,30.06,East,86,0.0,1.0,85,0.00,,---,0.13,VWS V14.01,2013-08-13 02:43:00,
2013-08-12 22:45:00,82.3,77.3,30.05,East,91,0.0,2.0,85,0.00,,---,0.13,VWS V15.00,2013-08-13 02:45:00,
2013-08-12 22:48:00,81.3,76.7,30.06,East,86,0.0,0.0,86,0.00,,---,0.13,VWS V14.01,2013-08-13 02:48:00,
2013-08-12 22:53:00,81.1,76.5,30.06,East,86,0.0,1.0,86,0.00,,---,0.13,VWS V14.01,2013-08-13 02:53:00,
2013-08-12 22:58:00,81.0,76.4,30.06,East,86,0.0,1.0,86,0.00,,---,0.13,VWS V14.01,2013-08-13 02:58:00,
2013-08-12 23:00:00,81.7,76.8,30.05,East,91,0.0,0.0,85,0.00,,---,0.13,VWS V15.00,2013-08-13 03:00:00,
2013-08-12 23:03:00,81.2,76.6,30.06,East,86,0.0,1.0,86,0.00,,---,0.13,VWS V14.01,2013-08-13 03:03:00,
2013-08-12 23:08:00,81.3,76.7,30.06,ESE,108,0.0,1.0,86,0.00,,---,0.13,VWS V14.01,2013-08-13 03:08:00,
2013-08-12 23:13:00,81.3,76.7,30.06,East,91,1.0,2.0,86,0.00,,---,0.13,VWS V14.01,2013-08-13 03:13:00,
2013-08-12 23:15:00,81.1,76.5,30.05,East,91,0.0,0.0,86,0.00,,---,0.13,VWS V15.00,2013-08-13 03:15:00,
2013-08-12 23:18:00,81.3,76.7,30.06,ESE,103,0.0,1.0,86,0.00,,---,0.13,VWS V14.01,2013-08-13 03:18:00,
2013-08-12 23:23:00,81.3,76.7,30.06,East,101,2.0,2.0,86,0.00,,---,0.13,VWS V14.01,2013-08-13 03:23:00,
2013-08-12 23:28:00,81.4,76.5,30.06,ESE,105,0.0,2.0,85,0.00,,---,0.13,VWS V14.01,2013-08-13 03:28:00,
2013-08-12 23:30:00,81.3,76.7,30.06,East,86,0.0,2.0,86,0.00,,---,0.13,VWS V15.00,2013-08-13 03:30:00,
2013-08-12 23:33:00,81.4,76.5,30.06,ESE,105,0.0,0.0,85,0.00,,---,0.13,VWS V14.01,2013-08-13 03:33:00,
2013-08-12 23:38:00,81.3,76.7,30.06,ESE,105,0.0,0.0,86,0.00,,---,0.13,VWS V14.01,2013-08-13 03:38:00,
2013-08-12 23:43:00,81.1,76.5,30.06,East,89,0.0,1.0,86,0.00,,---,0.13,VWS V14.01,2013-08-13 03:43:00,
2013-08-12 23:45:00,81.4,76.5,30.06,East,86,0.0,1.0,85,0.00,,---,0.13,VWS V15.00,2013-08-13 03:45:00,
2013-08-12 23:48:00,80.9,76.3,30.06,East,89,0.0,0.0,86,0.00,,---,0.13,VWS V14.01,2013-08-13 03:48:00,
2013-08-12 23:54:00,80.9,76.3,30.06,East,89,0.0,1.0,86,0.00,,---,0.13,VWS V14.01,2013-08-13 03:54:00,
2013-08-12 23:59:00,80.9,76.3,30.05,East,89,0.0,1.0,86,0.00,,---,0.13,VWS V14.01,2013-08-13 03:59:00,